Time;durP1;ratioP1;P1;durP2;ratioP2;P2;SDS_P1;SDS_P2;PMS_P1;PMS_P2;Temp;Humidity;BMP_temperature;BMP_pressure;BME280_temperature;BME280_humidity;BME280_pressure;Samples;Min_cycle;Max_cycle;Signal;HPM_P1;HPM_P2
2022/11/28 00:00:09;;;;;;;5.43;3.70;;;;;;;;;;4974958;28;20189;-78
2022/11/28 00:02:34;;;;;;;4.03;2.97;;;;;;;;;;4978905;28;20196;-78
2022/11/28 00:04:59;;;;;;;3.43;3.13;;;;;;;;;;4976023;28;20217;-76
2022/11/28 00:07:24;;;;;;;4.27;3.07;;;;;;;;;;4971875;28;20209;-77
2022/11/28 00:09:51;;;;;;;2.90;2.50;;;;;;;;;;4983500;28;20206;-77
2022/11/28 00:12:16;;;;;;;4.47;3.23;;;;;;;;;;4975460;28;20197;-77
2022/11/28 00:14:42;;;;;;;3.33;2.63;;;;;;;;;;4977628;28;20176;-77
2022/11/28 00:17:07;;;;;;;2.70;2.50;;;;;;;;;;4974143;28;20206;-77
2022/11/28 00:19:32;;;;;;;4.20;2.43;;;;;;;;;;4976030;28;20238;-78
2022/11/28 00:21:57;;;;;;;4.03;2.87;;;;;;;;;;4976932;28;20183;-77
2022/11/28 00:24:23;;;;;;;2.10;1.83;;;;;;;;;;4971934;28;20198;-77
2022/11/28 00:26:48;;;;;;;2.03;1.73;;;;;;;;;;4970738;28;20182;-77
2022/11/28 00:29:13;;;;;;;2.47;1.67;;;;;;;;;;4975406;28;20178;-77
2022/11/28 00:31:41;;;;;;;2.30;1.87;;;;;;;;;;4982857;28;20210;-77
2022/11/28 00:34:07;;;;;;;1.57;1.40;;;;;;;;;;4978819;28;20183;-77
2022/11/28 00:36:32;;;;;;;1.83;1.50;;;;;;;;;;4978777;28;20192;-77
2022/11/28 00:38:57;;;;;;;1.87;1.63;;;;;;;;;;4978197;28;20187;-77
2022/11/28 00:41:25;;;;;;;1.60;1.50;;;;;;;;;;4974293;28;20234;-77
2022/11/28 00:43:50;;;;;;;1.37;1.27;;;;;;;;;;4976341;28;20188;-77
2022/11/28 00:46:16;;;;;;;2.70;1.40;;;;;;;;;;4980030;28;20217;-77
2022/11/28 00:48:41;;;;;;;1.00;0.97;;;;;;;;;;4973579;28;20259;-77
2022/11/28 00:51:08;;;;;;;1.43;1.30;;;;;;;;;;4975726;28;20182;-77
2022/11/28 00:53:33;;;;;;;2.50;2.30;;;;;;;;;;4975515;28;20183;-77
2022/11/28 00:55:58;;;;;;;1.40;1.30;;;;;;;;;;4973473;28;20182;-77
2022/11/28 00:58:23;;;;;;;0.90;0.90;;;;;;;;;;4969805;28;20257;-77
2022/11/28 01:00:49;;;;;;;0.90;0.90;;;;;;;;;;4974005;28;20213;-77
2022/11/28 01:03:14;;;;;;;1.00;1.00;;;;;;;;;;4980280;28;20180;-77
2022/11/28 01:05:40;;;;;;;1.30;1.30;;;;;;;;;;4971831;28;20712;-77
2022/11/28 01:08:05;;;;;;;2.43;1.20;;;;;;;;;;4972261;28;20237;-77
2022/11/28 01:10:31;;;;;;;1.13;1.03;;;;;;;;;;4981837;28;20278;-77
2022/11/28 01:12:56;;;;;;;1.37;1.23;;;;;;;;;;4976052;28;20184;-77
2022/11/28 01:15:21;;;;;;;1.10;1.00;;;;;;;;;;4973135;28;20179;-77
2022/11/28 01:17:46;;;;;;;1.10;1.00;;;;;;;;;;4977672;28;20205;-77
2022/11/28 01:20:12;;;;;;;1.60;1.40;;;;;;;;;;4973246;28;20231;-77
2022/11/28 01:22:37;;;;;;;2.50;2.07;;;;;;;;;;4971163;28;20508;-77
2022/11/28 01:25:02;;;;;;;3.20;1.80;;;;;;;;;;4977004;28;20219;-77
2022/11/28 01:27:27;;;;;;;1.40;1.30;;;;;;;;;;4973322;28;20266;-77
2022/11/28 01:29:53;;;;;;;1.43;1.10;;;;;;;;;;4974367;28;20220;-77
2022/11/28 01:32:18;;;;;;;1.10;1.00;;;;;;;;;;4969911;28;20555;-77
2022/11/28 01:34:43;;;;;;;0.77;0.77;;;;;;;;;;4972626;28;20187;-77
2022/11/28 01:37:08;;;;;;;1.20;1.10;;;;;;;;;;4983475;28;20273;-76
2022/11/28 01:39:33;;;;;;;1.30;1.03;;;;;;;;;;4971478;28;20185;-77
2022/11/28 01:41:58;;;;;;;0.67;0.67;;;;;;;;;;4982915;28;20183;-77
2022/11/28 01:44:24;;;;;;;0.60;0.60;;;;;;;;;;4971422;28;20178;-77
2022/11/28 01:46:49;;;;;;;0.60;0.60;;;;;;;;;;4978419;28;20191;-77
2022/11/28 01:49:16;;;;;;;1.60;0.97;;;;;;;;;;4970720;28;20186;-77
2022/11/28 01:51:44;;;;;;;0.70;0.70;;;;;;;;;;4975844;28;20189;-77
2022/11/28 01:54:10;;;;;;;1.10;1.00;;;;;;;;;;4972306;28;20179;-77
2022/11/28 01:56:42;;;;;;;1.20;1.00;;;;;;;;;;4973986;28;20236;-77
2022/11/28 01:59:08;;;;;;;0.80;0.80;;;;;;;;;;4976920;28;20200;-77
2022/11/28 02:01:33;;;;;;;0.70;0.70;;;;;;;;;;4973506;28;20183;-77
2022/11/28 02:03:59;;;;;;;0.80;0.80;;;;;;;;;;4976053;28;20186;-77
2022/11/28 02:06:24;;;;;;;1.17;1.07;;;;;;;;;;4971969;28;20213;-77
2022/11/28 02:08:51;;;;;;;0.70;0.67;;;;;;;;;;4972285;28;20193;-77
2022/11/28 02:11:16;;;;;;;0.60;0.60;;;;;;;;;;4980589;28;20261;-76
2022/11/28 02:13:47;;;;;;;0.70;0.63;;;;;;;;;;4979338;28;20279;-77
2022/11/28 02:16:29;;;;;;;0.83;0.83;;;;;;;;;;4972969;28;20184;-77
2022/11/28 02:19:14;;;;;;;0.63;0.63;;;;;;;;;;4988432;28;20262;-77
2022/11/28 02:21:51;;;;;;;0.70;0.70;;;;;;;;;;4983483;28;20188;-77
2022/11/28 02:24:35;;;;;;;0.77;0.77;;;;;;;;;;4986347;28;20277;-77
2022/11/28 02:27:00;;;;;;;1.20;1.10;;;;;;;;;;4978900;28;20184;-77
2022/11/28 02:29:28;;;;;;;1.40;1.27;;;;;;;;;;4974984;28;20222;-77
2022/11/28 02:32:05;;;;;;;1.00;0.80;;;;;;;;;;4976260;28;20257;-77
2022/11/28 02:34:42;;;;;;;1.20;1.03;;;;;;;;;;4991342;28;20179;-77
2022/11/28 02:37:10;;;;;;;1.10;0.93;;;;;;;;;;4976734;28;20184;-77
2022/11/28 02:39:54;;;;;;;1.30;0.90;;;;;;;;;;4972663;28;20215;-77
2022/11/28 02:42:27;;;;;;;0.70;0.70;;;;;;;;;;4985870;28;20251;-77
2022/11/28 02:45:25;;;;;;;0.80;0.80;;;;;;;;;;4971019;28;20543;-77
2022/11/28 02:47:57;;;;;;;1.00;1.00;;;;;;;;;;4951977;28;20189;-77
2022/11/28 02:50:25;;;;;;;1.17;1.07;;;;;;;;;;4978181;28;20316;-77
2022/11/28 02:53:03;;;;;;;1.20;1.10;;;;;;;;;;4973941;28;20178;-77
2022/11/28 02:55:29;;;;;;;1.00;1.00;;;;;;;;;;4967994;28;20187;-77
2022/11/28 02:57:54;;;;;;;1.00;1.00;;;;;;;;;;4971336;28;20281;-77
2022/11/28 03:00:26;;;;;;;1.50;1.20;;;;;;;;;;4973607;28;20189;-77
2022/11/28 03:03:14;;;;;;;1.10;1.00;;;;;;;;;;4987731;28;20215;-77
2022/11/28 03:05:39;;;;;;;1.67;1.20;;;;;;;;;;4976305;28;20306;-77
2022/11/28 03:08:11;;;;;;;1.00;1.00;;;;;;;;;;4979313;28;20257;-77
2022/11/28 03:10:57;;;;;;;0.73;0.73;;;;;;;;;;4962484;28;20184;-77
2022/11/28 03:13:25;;;;;;;1.10;1.00;;;;;;;;;;4969347;28;20210;-77
2022/11/28 03:16:00;;;;;;;1.33;1.10;;;;;;;;;;4971344;28;20182;-77
2022/11/28 03:18:27;;;;;;;1.00;0.90;;;;;;;;;;4970394;28;20281;-77
2022/11/28 03:20:55;;;;;;;1.30;1.20;;;;;;;;;;4971354;28;20187;-77
2022/11/28 03:23:30;;;;;;;0.80;0.80;;;;;;;;;;4971913;28;20238;-77
2022/11/28 03:25:58;;;;;;;0.60;0.60;;;;;;;;;;4968960;28;20213;-76
2022/11/28 03:28:30;;;;;;;1.17;0.80;;;;;;;;;;4970431;28;20262;-77
2022/11/28 03:30:59;;;;;;;0.80;0.80;;;;;;;;;;4971011;28;20188;-76
2022/11/28 03:33:26;;;;;;;0.80;0.80;;;;;;;;;;4994584;28;20201;-77
2022/11/28 03:35:55;;;;;;;0.60;0.60;;;;;;;;;;4974243;28;20236;-77
2022/11/28 03:38:23;;;;;;;1.33;0.90;;;;;;;;;;4974274;28;20257;-77
2022/11/28 03:40:51;;;;;;;0.70;0.70;;;;;;;;;;4977247;28;20221;-77
2022/11/28 03:43:19;;;;;;;0.80;0.80;;;;;;;;;;4979176;28;20211;-77
2022/11/28 03:45:47;;;;;;;0.70;0.70;;;;;;;;;;4969734;28;20233;-76
2022/11/28 03:48:15;;;;;;;1.03;0.90;;;;;;;;;;4970846;28;20177;-77
2022/11/28 03:50:43;;;;;;;2.07;1.90;;;;;;;;;;4980143;28;20186;-77
2022/11/28 03:53:10;;;;;;;3.03;2.83;;;;;;;;;;4970377;28;20174;-77
2022/11/28 03:55:55;;;;;;;2.80;1.77;;;;;;;;;;4971041;28;20186;-77
2022/11/28 03:58:26;;;;;;;8.40;4.87;;;;;;;;;;4972404;28;20237;-77
2022/11/28 04:01:12;;;;;;;7.70;7.00;;;;;;;;;;4972140;28;20187;-77
2022/11/28 04:03:46;;;;;;;3.53;2.30;;;;;;;;;;4981952;28;20190;-77
2022/11/28 04:06:24;;;;;;;2.70;2.43;;;;;;;;;;4970991;28;20205;-77
2022/11/28 04:09:12;;;;;;;2.40;2.20;;;;;;;;;;4980281;28;20187;-77
2022/11/28 04:11:41;;;;;;;2.37;1.30;;;;;;;;;;4968107;28;20318;-77
2022/11/28 04:14:09;;;;;;;0.97;0.90;;;;;;;;;;4979264;28;20225;-77
2022/11/28 04:16:46;;;;;;;1.20;1.10;;;;;;;;;;4974941;28;20173;-77
2022/11/28 04:19:20;;;;;;;1.37;1.07;;;;;;;;;;4968630;28;20310;-77
2022/11/28 04:21:51;;;;;;;1.53;1.40;;;;;;;;;;4975888;28;20187;-77
2022/11/28 04:24:22;;;;;;;2.50;1.00;;;;;;;;;;4973946;28;20222;-77
2022/11/28 04:26:50;;;;;;;0.87;0.87;;;;;;;;;;4972433;28;20197;-77
2022/11/28 04:29:17;;;;;;;1.50;1.10;;;;;;;;;;4973253;28;20504;-77
2022/11/28 04:31:43;;;;;;;1.00;1.00;;;;;;;;;;4994550;28;20177;-77
2022/11/28 04:34:10;;;;;;;1.83;1.40;;;;;;;;;;4975530;28;20193;-77
2022/11/28 04:36:37;;;;;;;1.50;1.40;;;;;;;;;;4970242;28;20238;-76
2022/11/28 04:39:04;;;;;;;2.00;1.43;;;;;;;;;;4974864;28;20182;-77
2022/11/28 04:41:36;;;;;;;1.50;1.27;;;;;;;;;;4978625;28;20179;-77
2022/11/28 04:44:13;;;;;;;1.50;1.17;;;;;;;;;;4974198;28;20182;-76
2022/11/28 04:46:42;;;;;;;1.67;1.40;;;;;;;;;;4976125;28;20216;-78
2022/11/28 04:49:08;;;;;;;1.37;1.27;;;;;;;;;;4988556;28;20222;-77
2022/11/28 04:51:36;;;;;;;1.50;0.93;;;;;;;;;;4974250;28;20188;-77
2022/11/28 04:54:23;;;;;;;1.90;1.20;;;;;;;;;;4972447;28;20204;-77
2022/11/28 04:56:51;;;;;;;3.23;2.10;;;;;;;;;;4970258;28;20219;-76
2022/11/28 04:59:18;;;;;;;1.53;1.43;;;;;;;;;;4972182;28;20190;-77
2022/11/28 05:01:44;;;;;;;2.83;1.10;;;;;;;;;;4973968;28;20204;-77
2022/11/28 05:04:11;;;;;;;2.43;1.40;;;;;;;;;;4983096;28;20184;-77
2022/11/28 05:06:36;;;;;;;1.70;1.20;;;;;;;;;;4972211;28;20272;-77
2022/11/28 05:09:02;;;;;;;1.90;1.20;;;;;;;;;;4976336;28;20215;-77
2022/11/28 05:11:27;;;;;;;1.53;1.40;;;;;;;;;;4970157;28;20288;-77
2022/11/28 05:13:53;;;;;;;3.53;1.40;;;;;;;;;;4984828;28;20265;-77
2022/11/28 05:16:18;;;;;;;1.83;1.73;;;;;;;;;;4973552;28;20207;-77
2022/11/28 05:18:43;;;;;;;5.57;2.20;;;;;;;;;;4976040;28;20231;-77
2022/11/28 05:21:09;;;;;;;7.63;1.80;;;;;;;;;;4968972;28;20304;-77
2022/11/28 05:23:35;;;;;;;1.30;1.20;;;;;;;;;;4967861;28;20198;-77
2022/11/28 05:26:03;;;;;;;5.17;2.10;;;;;;;;;;4976406;28;20206;-77
2022/11/28 05:28:28;;;;;;;2.80;1.70;;;;;;;;;;4968695;28;20182;-77
2022/11/28 05:30:57;;;;;;;3.57;1.50;;;;;;;;;;4986584;28;20196;-77
2022/11/28 05:33:22;;;;;;;1.90;1.53;;;;;;;;;;4975876;28;20175;-77
2022/11/28 05:35:47;;;;;;;2.20;1.57;;;;;;;;;;4972364;28;20192;-76
2022/11/28 05:38:13;;;;;;;3.57;2.53;;;;;;;;;;4972630;28;20179;-77
2022/11/28 05:40:42;;;;;;;6.23;2.80;;;;;;;;;;4978796;28;20183;-77
2022/11/28 05:43:08;;;;;;;2.63;2.00;;;;;;;;;;4974209;28;20189;-77
2022/11/28 05:45:33;;;;;;;18.87;8.00;;;;;;;;;;4967812;28;20213;-77
2022/11/28 05:47:58;;;;;;;5.70;4.83;;;;;;;;;;4971306;28;20199;-77
2022/11/28 05:50:23;;;;;;;5.03;3.70;;;;;;;;;;4972048;28;20176;-77
2022/11/28 05:52:49;;;;;;;4.03;2.57;;;;;;;;;;4969734;28;20278;-77
2022/11/28 05:55:14;;;;;;;3.43;2.13;;;;;;;;;;4967835;28;20185;-77
2022/11/28 05:57:39;;;;;;;3.03;2.37;;;;;;;;;;4972865;28;20214;-77
2022/11/28 06:00:05;;;;;;;3.40;2.77;;;;;;;;;;4975582;28;20180;-77
2022/11/28 06:02:30;;;;;;;10.23;5.67;;;;;;;;;;4972555;28;20203;-77
2022/11/28 06:04:55;;;;;;;29.40;8.93;;;;;;;;;;4972509;28;20203;-77
2022/11/28 06:07:20;;;;;;;16.97;5.20;;;;;;;;;;4983229;28;20203;-77
2022/11/28 06:09:46;;;;;;;7.00;4.00;;;;;;;;;;4971512;28;20198;-77
2022/11/28 06:12:11;;;;;;;4.67;3.90;;;;;;;;;;4969602;28;20313;-77
2022/11/28 06:14:36;;;;;;;2.97;2.50;;;;;;;;;;4973397;28;20180;-77
2022/11/28 06:17:01;;;;;;;3.57;3.23;;;;;;;;;;4979299;28;20201;-77
2022/11/28 06:19:26;;;;;;;3.10;2.83;;;;;;;;;;4971732;28;20221;-77
2022/11/28 06:21:52;;;;;;;3.90;2.73;;;;;;;;;;4971677;28;20274;-77
2022/11/28 06:24:17;;;;;;;7.17;5.30;;;;;;;;;;4969669;28;20181;-81
2022/11/28 06:26:42;;;;;;;4.67;4.17;;;;;;;;;;4968324;28;20217;-82
2022/11/28 06:29:08;;;;;;;6.23;5.63;;;;;;;;;;4968618;28;20248;-81
2022/11/28 06:31:33;;;;;;;8.03;4.87;;;;;;;;;;4980595;28;20210;-81
2022/11/28 06:33:58;;;;;;;4.13;3.27;;;;;;;;;;4976866;28;20202;-81
2022/11/28 06:36:25;;;;;;;3.47;3.07;;;;;;;;;;4971284;28;20176;-81
2022/11/28 06:38:50;;;;;;;4.23;3.27;;;;;;;;;;4976284;28;20210;-81
2022/11/28 06:41:17;;;;;;;6.17;3.70;;;;;;;;;;4978608;28;20184;-81
2022/11/28 06:43:42;;;;;;;3.50;3.13;;;;;;;;;;4973573;28;20187;-81
2022/11/28 06:46:11;;;;;;;7.80;3.70;;;;;;;;;;4969636;28;20292;-81
2022/11/28 06:48:37;;;;;;;4.57;3.27;;;;;;;;;;4972207;28;20184;-81
2022/11/28 06:51:04;;;;;;;5.73;3.43;;;;;;;;;;4972484;28;20189;-81
2022/11/28 06:53:29;;;;;;;4.27;3.23;;;;;;;;;;4971057;28;20194;-82
2022/11/28 06:55:55;;;;;;;4.53;2.97;;;;;;;;;;4971477;28;20186;-81
2022/11/28 06:58:21;;;;;;;2.70;1.90;;;;;;;;;;4968151;28;20180;-81
2022/11/28 07:00:46;;;;;;;3.30;1.80;;;;;;;;;;4975638;28;20189;-81
2022/11/28 07:03:12;;;;;;;2.00;1.80;;;;;;;;;;4973094;28;20192;-81
2022/11/28 07:05:37;;;;;;;1.93;1.73;;;;;;;;;;4966536;28;20205;-81
2022/11/28 07:08:02;;;;;;;4.20;2.53;;;;;;;;;;4968089;28;20177;-81
2022/11/28 07:10:28;;;;;;;2.67;2.00;;;;;;;;;;4980340;28;20180;-81
2022/11/28 07:12:57;;;;;;;2.77;1.50;;;;;;;;;;4977818;28;20185;-81
2022/11/28 07:15:22;;;;;;;2.43;1.60;;;;;;;;;;4979074;28;20194;-81
2022/11/28 07:17:47;;;;;;;1.50;1.30;;;;;;;;;;4970103;28;20201;-81
2022/11/28 07:20:13;;;;;;;2.57;2.00;;;;;;;;;;4970174;28;20241;-81
2022/11/28 07:22:38;;;;;;;2.43;2.00;;;;;;;;;;4972241;28;20188;-81
2022/11/28 07:25:04;;;;;;;2.07;1.90;;;;;;;;;;4986704;28;20230;-81
2022/11/28 07:27:29;;;;;;;3.20;2.10;;;;;;;;;;4965377;28;20187;-81
2022/11/28 07:29:54;;;;;;;3.37;2.10;;;;;;;;;;4970054;28;20183;-81
2022/11/28 07:32:19;;;;;;;2.57;2.07;;;;;;;;;;4978668;28;20259;-81
2022/11/28 07:34:44;;;;;;;2.23;1.90;;;;;;;;;;4984767;28;20176;-81
2022/11/28 07:37:10;;;;;;;3.20;2.27;;;;;;;;;;4979015;28;20239;-81
2022/11/28 07:39:35;;;;;;;2.30;1.90;;;;;;;;;;4972169;28;20183;-81
2022/11/28 07:42:00;;;;;;;3.67;2.17;;;;;;;;;;4968981;28;20183;-81
2022/11/28 07:44:25;;;;;;;2.97;2.53;;;;;;;;;;4974519;28;20226;-81
2022/11/28 07:46:51;;;;;;;2.13;1.93;;;;;;;;;;4983269;28;20236;-81
2022/11/28 07:49:16;;;;;;;3.83;2.00;;;;;;;;;;4976466;28;20181;-81
2022/11/28 07:51:42;;;;;;;4.63;4.23;;;;;;;;;;4974314;28;20191;-80
2022/11/28 07:54:07;;;;;;;6.10;5.57;;;;;;;;;;4972239;28;20179;-81
2022/11/28 07:56:34;;;;;;;4.23;3.43;;;;;;;;;;4970223;28;20181;-81
2022/11/28 07:58:59;;;;;;;3.57;2.63;;;;;;;;;;4962950;28;20276;-81
2022/11/28 08:01:29;;;;;;;2.20;2.00;;;;;;;;;;4968958;28;20383;-82
2022/11/28 08:03:55;;;;;;;2.70;2.13;;;;;;;;;;4968696;28;20190;-81
2022/11/28 08:06:26;;;;;;;2.10;1.80;;;;;;;;;;4985772;28;20201;-81
2022/11/28 08:08:52;;;;;;;1.80;1.70;;;;;;;;;;4968013;28;20180;-81
2022/11/28 08:11:18;;;;;;;3.77;2.20;;;;;;;;;;4969230;28;20188;-81
2022/11/28 08:13:44;;;;;;;2.93;2.00;;;;;;;;;;4980164;28;20186;-81
2022/11/28 08:16:14;;;;;;;2.80;2.30;;;;;;;;;;4972311;28;20266;-81
2022/11/28 08:18:40;;;;;;;2.20;1.90;;;;;;;;;;4972653;28;20231;-81
2022/11/28 08:21:06;;;;;;;3.33;2.03;;;;;;;;;;4971620;28;20265;-81
2022/11/28 08:23:33;;;;;;;2.57;1.70;;;;;;;;;;4984135;28;20189;-81
2022/11/28 08:25:59;;;;;;;2.10;1.90;;;;;;;;;;4976975;28;20250;-81
2022/11/28 08:28:24;;;;;;;3.70;2.10;;;;;;;;;;4967966;28;20196;-81
2022/11/28 08:30:49;;;;;;;2.30;1.83;;;;;;;;;;4975492;28;20249;-81
2022/11/28 08:33:15;;;;;;;3.10;1.70;;;;;;;;;;4974680;28;20176;-81
2022/11/28 08:35:40;;;;;;;4.50;2.00;;;;;;;;;;4980908;28;20217;-81
2022/11/28 08:38:05;;;;;;;2.03;1.83;;;;;;;;;;4973919;28;20188;-81
2022/11/28 08:40:31;;;;;;;2.57;1.80;;;;;;;;;;4982468;28;20209;-81
2022/11/28 08:42:57;;;;;;;2.20;1.90;;;;;;;;;;4975037;28;20204;-81
2022/11/28 08:45:22;;;;;;;6.17;2.90;;;;;;;;;;4973167;28;20201;-81
2022/11/28 08:47:47;;;;;;;7.57;5.43;;;;;;;;;;4979219;28;20206;-81
2022/11/28 08:50:13;;;;;;;9.07;6.13;;;;;;;;;;4974069;28;20208;-81
2022/11/28 08:52:38;;;;;;;5.00;2.80;;;;;;;;;;4976861;28;20186;-81
2022/11/28 08:55:03;;;;;;;9.03;4.67;;;;;;;;;;4985029;28;20187;-81
2022/11/28 08:57:28;;;;;;;2.40;2.17;;;;;;;;;;4975240;28;20194;-81
2022/11/28 08:59:54;;;;;;;1.83;1.67;;;;;;;;;;4978236;28;20177;-81
2022/11/28 09:02:19;;;;;;;4.77;2.70;;;;;;;;;;4977387;28;20184;-81
2022/11/28 09:04:44;;;;;;;4.40;2.20;;;;;;;;;;4976140;28;20173;-81
2022/11/28 09:07:09;;;;;;;3.07;1.73;;;;;;;;;;4973426;28;20184;-81
2022/11/28 09:09:34;;;;;;;3.57;2.00;;;;;;;;;;4976116;28;20173;-82
2022/11/28 09:12:00;;;;;;;4.10;1.90;;;;;;;;;;4971700;28;20182;-82
2022/11/28 09:14:25;;;;;;;3.20;1.87;;;;;;;;;;4973101;28;20260;-81
2022/11/28 09:16:51;;;;;;;7.77;5.73;;;;;;;;;;4985229;28;20199;-81
2022/11/28 09:19:16;;;;;;;6.00;4.50;;;;;;;;;;4979828;28;20258;-82
2022/11/28 09:21:41;;;;;;;3.50;3.20;;;;;;;;;;4981791;28;20200;-81
2022/11/28 09:24:07;;;;;;;4.33;3.37;;;;;;;;;;4973082;28;20219;-81
2022/11/28 09:26:32;;;;;;;4.07;2.87;;;;;;;;;;4975580;28;20220;-81
2022/11/28 09:28:58;;;;;;;3.53;3.13;;;;;;;;;;4973421;28;20262;-81
2022/11/28 09:31:23;;;;;;;12.07;2.67;;;;;;;;;;4971835;28;20204;-81
2022/11/28 09:33:48;;;;;;;4.47;3.53;;;;;;;;;;4959198;28;20235;-81
2022/11/28 09:36:15;;;;;;;3.07;2.77;;;;;;;;;;4986318;28;20256;-81
2022/11/28 09:38:40;;;;;;;3.33;2.87;;;;;;;;;;4977635;28;20187;-81
2022/11/28 09:41:24;;;;;;;2.60;2.27;;;;;;;;;;4980732;28;20185;-81
2022/11/28 09:43:51;;;;;;;3.27;2.43;;;;;;;;;;4972827;28;20497;-81
2022/11/28 09:46:21;;;;;;;3.30;1.93;;;;;;;;;;4976375;28;20212;-81
2022/11/28 09:48:49;;;;;;;11.50;5.97;;;;;;;;;;4994657;28;20175;-81
2022/11/28 09:51:27;;;;;;;18.67;10.67;;;;;;;;;;4966367;28;20175;-81
2022/11/28 09:54:08;;;;;;;31.50;17.83;;;;;;;;;;4975531;28;20186;-81
2022/11/28 09:56:33;;;;;;;8.97;7.50;;;;;;;;;;4988031;28;20180;-81
2022/11/28 09:59:01;;;;;;;4.50;3.67;;;;;;;;;;4977638;28;20188;-81
2022/11/28 10:01:45;;;;;;;7.90;6.30;;;;;;;;;;4976892;28;20247;-81
2022/11/28 10:04:37;;;;;;;6.13;3.30;;;;;;;;;;4982412;28;20191;-81
2022/11/28 10:07:15;;;;;;;2.77;2.43;;;;;;;;;;4969410;28;20208;-81
2022/11/28 10:10:12;;;;;;;3.40;2.77;;;;;;;;;;4985169;28;20179;-81
2022/11/28 10:12:46;;;;;;;5.73;5.13;;;;;;;;;;4947245;28;20272;-81
2022/11/28 10:15:23;;;;;;;4.23;2.30;;;;;;;;;;4972546;28;20183;-81
2022/11/28 10:17:55;;;;;;;6.23;3.60;;;;;;;;;;4978506;28;20253;-82
2022/11/28 10:20:30;;;;;;;2.40;2.20;;;;;;;;;;4986461;28;21066;-81
2022/11/28 10:22:57;;;;;;;1.90;1.80;;;;;;;;;;4962312;28;20215;-81
2022/11/28 10:25:23;;;;;;;3.60;2.23;;;;;;;;;;4972809;28;20257;-81
2022/11/28 10:27:48;;;;;;;4.57;2.83;;;;;;;;;;4974354;28;20184;-81
2022/11/28 10:30:19;;;;;;;3.23;1.93;;;;;;;;;;4972018;28;20178;-81
2022/11/28 10:32:50;;;;;;;2.83;1.97;;;;;;;;;;4971877;28;20184;-81
2022/11/28 10:35:27;;;;;;;1.60;1.50;;;;;;;;;;4973031;28;20206;-81
2022/11/28 10:37:52;;;;;;;2.63;2.00;;;;;;;;;;4968888;28;20331;-82
2022/11/28 10:40:28;;;;;;;2.07;1.87;;;;;;;;;;4971631;28;20250;-81
2022/11/28 10:43:02;;;;;;;3.60;2.33;;;;;;;;;;4974277;28;20186;-82
2022/11/28 10:45:34;;;;;;;2.67;2.00;;;;;;;;;;4974375;28;20213;-81
2022/11/28 10:48:07;;;;;;;2.70;2.50;;;;;;;;;;4980988;28;20169;-82
2022/11/28 10:50:37;;;;;;;1.97;1.73;;;;;;;;;;4979656;28;20190;-81
2022/11/28 10:53:18;;;;;;;2.77;1.90;;;;;;;;;;4971612;28;20180;-81
2022/11/28 10:55:49;;;;;;;3.80;2.07;;;;;;;;;;4978180;28;20177;-82
2022/11/28 10:58:20;;;;;;;3.23;2.00;;;;;;;;;;4977511;28;20181;-82
2022/11/28 11:00:49;;;;;;;2.10;1.97;;;;;;;;;;4976086;28;20178;-82
2022/11/28 11:03:16;;;;;;;3.20;2.00;;;;;;;;;;4977788;28;20242;-82
2022/11/28 11:05:41;;;;;;;3.67;2.50;;;;;;;;;;4971968;28;20199;-82
2022/11/28 11:08:19;;;;;;;7.20;6.20;;;;;;;;;;4976040;28;20183;-82
2022/11/28 11:11:00;;;;;;;20.90;16.13;;;;;;;;;;4982762;28;20176;-82
2022/11/28 11:13:26;;;;;;;4.47;3.03;;;;;;;;;;4978844;28;20187;-82
2022/11/28 11:15:57;;;;;;;10.40;8.73;;;;;;;;;;4971240;28;20185;-81
2022/11/28 11:18:27;;;;;;;4.00;2.90;;;;;;;;;;4986886;28;20197;-81
2022/11/28 11:21:05;;;;;;;2.50;2.30;;;;;;;;;;4977747;28;20205;-81
2022/11/28 11:23:30;;;;;;;3.13;2.37;;;;;;;;;;4979292;28;20192;-82
2022/11/28 11:25:57;;;;;;;5.57;4.63;;;;;;;;;;4976677;28;20209;-81
2022/11/28 11:28:28;;;;;;;12.60;8.87;;;;;;;;;;4970821;28;20207;-81
2022/11/28 11:30:57;;;;;;;4.70;3.80;;;;;;;;;;4970833;28;20216;-82
2022/11/28 11:33:24;;;;;;;3.90;2.30;;;;;;;;;;4969962;28;20181;-81
2022/11/28 11:35:49;;;;;;;3.50;3.20;;;;;;;;;;4979085;28;20180;-82
2022/11/28 11:38:20;;;;;;;4.47;2.60;;;;;;;;;;4969822;28;20183;-81
2022/11/28 11:40:47;;;;;;;5.07;4.57;;;;;;;;;;4977167;28;20192;-81
2022/11/28 11:43:26;;;;;;;4.83;3.20;;;;;;;;;;4973219;28;20231;-82
2022/11/28 11:46:03;;;;;;;4.10;3.33;;;;;;;;;;4977960;28;20212;-81
2022/11/28 11:48:36;;;;;;;4.33;3.33;;;;;;;;;;4976453;28;20215;-82
2022/11/28 11:51:01;;;;;;;4.23;3.10;;;;;;;;;;4981020;28;20180;-81
2022/11/28 11:53:26;;;;;;;3.57;3.27;;;;;;;;;;4975296;28;20313;-81
2022/11/28 11:55:53;;;;;;;7.90;7.10;;;;;;;;;;4975547;28;20271;-82
2022/11/28 11:58:27;;;;;;;3.73;3.33;;;;;;;;;;4970057;28;20178;-82
2022/11/28 12:00:55;;;;;;;4.30;3.20;;;;;;;;;;4970465;28;20203;-81
2022/11/28 12:03:40;;;;;;;4.30;3.03;;;;;;;;;;4982577;28;20185;-82
2022/11/28 12:06:19;;;;;;;3.73;3.43;;;;;;;;;;4984379;28;20237;-82
2022/11/28 12:08:50;;;;;;;4.20;3.40;;;;;;;;;;4978960;28;20182;-82
2022/11/28 12:11:15;;;;;;;3.27;2.90;;;;;;;;;;4976637;28;20191;-81
2022/11/28 12:13:41;;;;;;;3.07;2.70;;;;;;;;;;4976021;28;20175;-82
2022/11/28 12:16:29;;;;;;;5.20;2.67;;;;;;;;;;4977406;28;20269;-82
2022/11/28 12:19:00;;;;;;;4.07;3.30;;;;;;;;;;4982763;28;20333;-82
2022/11/28 12:21:34;;;;;;;5.33;2.80;;;;;;;;;;4979800;28;20182;-81
2022/11/28 12:24:03;;;;;;;3.00;2.60;;;;;;;;;;4980365;28;20182;-82
2022/11/28 12:26:31;;;;;;;4.63;2.87;;;;;;;;;;4977915;28;20204;-82
2022/11/28 12:29:05;;;;;;;3.63;3.03;;;;;;;;;;4975078;28;20327;-81
2022/11/28 12:31:37;;;;;;;6.03;3.13;;;;;;;;;;4968768;28;20174;-82
2022/11/28 12:34:07;;;;;;;3.50;3.20;;;;;;;;;;4978147;28;20184;-82
2022/11/28 12:36:37;;;;;;;5.50;3.70;;;;;;;;;;4996421;28;20183;-81
2022/11/28 12:39:11;;;;;;;3.50;3.20;;;;;;;;;;4981641;28;20223;-82
2022/11/28 12:41:39;;;;;;;4.20;3.73;;;;;;;;;;4982934;28;20188;-82
2022/11/28 12:44:27;;;;;;;2.90;2.60;;;;;;;;;;4970491;28;20204;-82
2022/11/28 12:47:00;;;;;;;2.83;2.63;;;;;;;;;;4977968;28;20211;-82
2022/11/28 12:49:31;;;;;;;4.57;3.80;;;;;;;;;;4973552;28;20207;-81
2022/11/28 12:52:01;;;;;;;3.80;3.47;;;;;;;;;;4981196;28;20183;-82
2022/11/28 12:54:39;;;;;;;4.97;3.60;;;;;;;;;;4989771;28;20191;-82
2022/11/28 12:57:15;;;;;;;5.77;4.20;;;;;;;;;;4972564;28;20398;-81
2022/11/28 12:59:50;;;;;;;4.20;3.33;;;;;;;;;;4980357;28;20192;-81
2022/11/28 13:02:19;;;;;;;4.23;3.07;;;;;;;;;;4979803;28;20179;-82
2022/11/28 13:05:02;;;;;;;6.63;4.83;;;;;;;;;;4987929;28;20186;-82
2022/11/28 13:07:53;;;;;;;4.57;3.23;;;;;;;;;;4982958;28;20262;-81
2022/11/28 13:10:30;;;;;;;5.37;3.40;;;;;;;;;;4979928;28;20180;-82
2022/11/28 13:12:59;;;;;;;3.80;3.10;;;;;;;;;;4973247;28;20244;-82
2022/11/28 13:15:24;;;;;;;5.80;2.77;;;;;;;;;;4980412;28;20184;-81
2022/11/28 13:17:57;;;;;;;3.77;2.83;;;;;;;;;;4980561;28;20204;-81
2022/11/28 13:20:41;;;;;;;3.37;3.07;;;;;;;;;;4981027;28;20229;-81
2022/11/28 13:23:09;;;;;;;4.30;3.20;;;;;;;;;;4980108;28;20180;-82
2022/11/28 13:25:42;;;;;;;5.00;3.67;;;;;;;;;;4977857;28;20296;-82
2022/11/28 13:28:07;;;;;;;5.87;3.20;;;;;;;;;;4974210;28;20180;-82
2022/11/28 13:30:39;;;;;;;3.47;3.17;;;;;;;;;;4973146;28;20203;-82
2022/11/28 13:33:10;;;;;;;4.90;3.60;;;;;;;;;;4968570;28;20177;-81
2022/11/28 13:35:36;;;;;;;4.23;3.50;;;;;;;;;;4974200;28;20209;-81
2022/11/28 13:38:10;;;;;;;7.00;5.70;;;;;;;;;;4979563;28;20183;-82
2022/11/28 13:40:38;;;;;;;4.43;3.60;;;;;;;;;;4980981;28;20257;-82
2022/11/28 13:43:09;;;;;;;3.63;3.33;;;;;;;;;;4972929;28;20200;-82
2022/11/28 13:45:36;;;;;;;5.00;4.00;;;;;;;;;;4973354;28;20219;-81
2022/11/28 13:48:24;;;;;;;7.13;3.37;;;;;;;;;;4973900;28;20179;-82
2022/11/28 13:50:59;;;;;;;4.57;4.07;;;;;;;;;;4985981;28;20188;-82
2022/11/28 13:53:24;;;;;;;3.80;3.40;;;;;;;;;;4972995;28;20202;-82
2022/11/28 13:55:51;;;;;;;5.33;4.30;;;;;;;;;;4980890;28;20187;-82
2022/11/28 13:58:17;;;;;;;5.03;3.87;;;;;;;;;;4971848;28;20180;-82
2022/11/28 14:00:58;;;;;;;7.20;4.00;;;;;;;;;;4973886;28;20225;-81
2022/11/28 14:03:23;;;;;;;5.57;4.23;;;;;;;;;;4975870;28;20190;-82
2022/11/28 14:05:53;;;;;;;13.90;6.70;;;;;;;;;;4976148;28;20200;-81
2022/11/28 14:08:31;;;;;;;16.97;8.20;;;;;;;;;;4975303;28;20179;-81
2022/11/28 14:11:15;;;;;;;12.10;5.97;;;;;;;;;;4972055;28;20175;-81
2022/11/28 14:13:53;;;;;;;10.20;4.93;;;;;;;;;;4979587;28;20177;-81
2022/11/28 14:16:21;;;;;;;16.53;6.87;;;;;;;;;;4972511;28;20192;-81
2022/11/28 14:18:52;;;;;;;14.07;7.40;;;;;;;;;;4994435;28;20256;-81
2022/11/28 14:21:24;;;;;;;12.70;6.90;;;;;;;;;;4979748;28;20188;-81
2022/11/28 14:24:04;;;;;;;9.50;6.30;;;;;;;;;;4980547;28;20234;-81
2022/11/28 14:26:32;;;;;;;13.33;6.77;;;;;;;;;;4971563;28;20220;-81
2022/11/28 14:28:57;;;;;;;6.20;5.57;;;;;;;;;;4972042;28;20169;-81
2022/11/28 14:31:26;;;;;;;5.33;4.87;;;;;;;;;;4979627;28;20191;-81
2022/11/28 14:34:02;;;;;;;8.23;5.27;;;;;;;;;;4980433;28;20176;-81
2022/11/28 14:36:35;;;;;;;5.03;4.53;;;;;;;;;;4971382;28;20187;-81
2022/11/28 14:39:10;;;;;;;5.47;4.33;;;;;;;;;;4980757;28;20187;-81
2022/11/28 14:41:59;;;;;;;9.23;5.50;;;;;;;;;;4977191;28;20183;-81
2022/11/28 14:44:44;;;;;;;6.77;4.77;;;;;;;;;;4970415;28;20183;-81
2022/11/28 14:47:29;;;;;;;4.57;4.07;;;;;;;;;;4986358;28;20188;-81
2022/11/28 14:50:03;;;;;;;21.60;12.87;;;;;;;;;;4978508;28;20235;-81
2022/11/28 14:52:29;;;;;;;14.57;7.97;;;;;;;;;;4981278;28;20187;-81
2022/11/28 14:54:55;;;;;;;22.43;14.27;;;;;;;;;;4972019;28;20191;-81